createdAt,value
2023-04-14T00:01:30.808Z,94786.63
2023-04-14T00:04:16.882Z,94779.91
2023-04-14T00:07:02.100Z,94786.38
2023-04-14T00:09:47.282Z,94784.56
2023-04-14T00:12:32.419Z,94781.19
2023-04-14T00:15:18.188Z,94782.38
2023-04-14T00:18:03.394Z,94785.00
2023-04-14T00:20:48.522Z,94780.94
2023-04-14T00:23:33.955Z,94780.50
2023-04-14T00:26:19.339Z,94779.47
2023-04-14T00:29:04.535Z,94773.19
2023-04-14T00:31:49.745Z,94777.41
2023-04-14T00:34:35.099Z,94777.41
2023-04-14T00:37:20.464Z,94777.41
2023-04-14T00:40:09.320Z,94775.59
2023-04-14T00:42:54.654Z,94771.16
2023-04-14T00:45:45.612Z,94766.22
2023-04-14T00:48:31.469Z,94760.16
2023-04-14T00:51:16.924Z,94763.81
2023-04-14T00:54:09.641Z,94760.16
2023-04-14T00:56:57.435Z,94758.91
2023-04-14T00:59:42.609Z,94759.72
2023-04-14T01:02:28.152Z,94751.22
2023-04-14T01:05:14.035Z,94757.75
2023-04-14T01:07:59.260Z,94756.94
2023-04-14T01:11:03.663Z,94752.09
2023-04-14T01:14:40.469Z,94755.59
2023-04-14T01:17:34.782Z,94758.66
2023-04-14T01:20:30.998Z,94755.66
2023-04-14T01:23:26.789Z,94758.34
2023-04-14T01:26:19.256Z,94759.66
2023-04-14T01:29:28.428Z,94752.84
2023-04-14T01:32:22.219Z,94745.56
2023-04-14T01:35:23.460Z,94754.56
2023-04-14T01:38:12.697Z,94750.13
2023-04-14T01:41:01.706Z,94751.81
2023-04-14T01:43:49.908Z,94748.19
2023-04-14T01:46:36.601Z,94753.94
2023-04-14T01:49:23.845Z,94742.66
2023-04-14T01:52:10.868Z,94741.06
2023-04-14T01:54:58.562Z,94743.53
2023-04-14T01:57:46.229Z,94746.81
2023-04-14T02:00:33.426Z,94740.78
2023-04-14T02:03:21.733Z,94747.31
2023-04-14T02:06:08.933Z,94740.84
2023-04-14T02:08:54.217Z,94746.50
2023-04-14T02:11:40.612Z,94745.31
2023-04-14T02:14:27.744Z,94740.88
2023-04-14T02:17:13.867Z,94738.06
2023-04-14T02:20:01.093Z,94733.25
2023-04-14T02:22:46.109Z,94741.78
2023-04-14T02:25:35.301Z,94745.00
2023-04-14T02:28:22.910Z,94738.56
2023-04-14T02:31:13.004Z,94731.06
2023-04-14T02:34:01.072Z,94722.41
2023-04-14T02:36:53.530Z,94727.28
2023-04-14T02:39:43.872Z,94713.13
2023-04-14T02:42:30.968Z,94704.47
2023-04-14T02:45:23.105Z,94714.59
2023-04-14T02:48:13.053Z,94718.06
2023-04-14T02:50:59.894Z,94712.81
2023-04-14T02:53:45.831Z,94714.41
2023-04-14T02:56:32.053Z,94705.91
2023-04-14T02:59:18.662Z,94701.28
2023-04-14T03:02:06.220Z,94705.16
2023-04-14T03:04:53.419Z,94701.94
2023-04-14T03:07:40.502Z,94696.50
2023-04-14T03:10:26.968Z,94701.13
2023-04-14T03:13:14.075Z,94701.56
2023-04-14T03:15:59.753Z,94696.50
2023-04-14T03:18:45.892Z,94690.25
2023-04-14T03:21:32.122Z,94694.31
2023-04-14T03:24:24.381Z,94685.81
2023-04-14T03:27:14.427Z,94685.41
2023-04-14T03:30:07.266Z,94684.63
2023-04-14T03:32:54.338Z,94689.28
2023-04-14T03:35:40.371Z,94686.03
2023-04-14T03:38:28.036Z,94687.88
2023-04-14T03:41:14.791Z,94689.88
2023-04-14T03:44:01.610Z,94692.13
2023-04-14T03:46:49.252Z,94713.94
2023-04-14T03:49:39.376Z,94718.59
2023-04-14T03:52:26.571Z,94714.75
2023-04-14T03:55:12.607Z,94716.56
2023-04-14T03:57:59.505Z,94717.59
2023-04-14T04:00:45.351Z,94719.59
2023-04-14T04:03:31.496Z,94729.09
2023-04-14T04:06:18.026Z,94723.84
2023-04-14T04:09:05.873Z,94717.38
2023-04-14T04:11:53.154Z,94728.31
2023-04-14T04:14:41.864Z,94720.59
2023-04-14T04:17:31.552Z,94714.56
2023-04-14T04:20:18.647Z,94715.19
2023-04-14T04:23:05.967Z,94708.28
2023-04-14T04:25:51.954Z,94695.78
2023-04-14T04:28:37.989Z,94684.06
2023-04-14T04:31:24.314Z,94680.22
2023-04-14T04:34:10.477Z,94682.22
2023-04-14T04:36:56.318Z,94684.44
2023-04-14T04:39:41.646Z,94688.03
2023-04-14T04:42:27.165Z,94681.38
2023-04-14T04:45:12.834Z,94672.47
2023-04-14T04:47:57.997Z,94669.25
2023-04-14T04:50:43.343Z,94675.28
2023-04-14T04:53:28.605Z,94673.63
2023-04-14T04:56:14.107Z,94667.19
2023-04-14T04:58:59.745Z,94656.25
2023-04-14T05:01:45.761Z,94652.78
2023-04-14T05:04:31.137Z,94646.69
2023-04-14T05:07:16.661Z,94648.91
2023-04-14T05:10:01.757Z,94643.41
2023-04-14T05:12:46.974Z,94645.78
2023-04-14T05:15:32.201Z,94648.38
2023-04-14T05:18:17.960Z,94652.00
2023-04-14T05:21:07.843Z,94663.28
2023-04-14T05:23:52.960Z,94662.84
2023-04-14T05:26:57.826Z,94658.38
2023-04-14T05:29:44.006Z,94657.66
2023-04-14T05:32:29.434Z,94664.31
2023-04-14T05:35:15.901Z,94654.94
2023-04-14T05:38:01.480Z,94646.56
2023-04-14T05:40:47.448Z,94647.31
2023-04-14T05:43:32.766Z,94639.16
2023-04-14T05:46:17.951Z,94635.66
2023-04-14T05:49:04.935Z,94622.81
2023-04-14T05:51:50.467Z,94619.66
2023-04-14T05:54:35.814Z,94624.88
2023-04-14T05:57:21.377Z,94620.34
2023-04-14T06:00:10.599Z,94619.03
2023-04-14T06:02:56.304Z,94616.09
2023-04-14T06:05:42.007Z,94610.53
2023-04-14T06:08:26.932Z,94605.31
2023-04-14T06:11:13.407Z,94614.09
2023-04-14T06:13:58.919Z,94608.09
2023-04-14T06:16:44.361Z,94608.13
2023-04-14T06:19:29.897Z,94604.72
2023-04-14T06:22:19.325Z,94596.53
2023-04-14T06:25:04.831Z,94597.78
2023-04-14T06:27:50.368Z,94599.91
2023-04-14T06:30:35.803Z,94593.25
2023-04-14T06:33:21.035Z,94595.34
2023-04-14T06:36:06.549Z,94595.25
2023-04-14T06:38:51.623Z,94591.66
2023-04-14T06:41:36.918Z,94594.34
2023-04-14T06:44:22.297Z,94590.03
2023-04-14T06:47:09.089Z,94583.56
2023-04-14T06:49:54.022Z,94583.34
2023-04-14T06:52:39.350Z,94585.88
2023-04-14T06:55:24.556Z,94585.97
2023-04-14T06:58:09.861Z,94581.59
2023-04-14T07:01:03.141Z,94575.94
2023-04-14T07:03:48.466Z,94577.28
2023-04-14T07:06:33.813Z,94568.13
2023-04-14T07:09:20.904Z,94577.00
2023-04-14T07:12:06.560Z,94582.44
2023-04-14T07:14:52.239Z,94570.34
2023-04-14T07:17:37.393Z,94577.13
2023-04-14T07:20:22.799Z,94571.38
2023-04-14T07:23:07.718Z,94574.16
2023-04-14T07:25:57.687Z,94567.63
2023-04-14T07:28:43.028Z,94581.59
2023-04-14T07:31:28.173Z,94578.28
2023-04-14T07:34:13.362Z,94578.69
2023-04-14T07:36:58.804Z,94578.56
2023-04-14T07:39:44.026Z,94575.16
2023-04-14T07:42:29.423Z,94572.31
2023-04-14T07:45:14.432Z,94567.31
2023-04-14T07:47:59.918Z,94562.88
2023-04-14T07:50:48.354Z,94568.88
2023-04-14T07:53:34.124Z,94569.53
2023-04-14T07:56:19.570Z,94568.91
2023-04-14T07:59:04.618Z,94570.19
2023-04-14T08:01:49.864Z,94555.94
2023-04-14T08:04:35.190Z,94555.25
2023-04-14T08:07:20.738Z,94553.47
2023-04-14T08:10:06.147Z,94557.22
2023-04-14T08:12:51.403Z,94553.31
2023-04-14T08:15:36.800Z,94564.47
2023-04-14T08:18:22.212Z,94552.50
2023-04-14T08:21:07.594Z,94557.31
2023-04-14T08:23:52.805Z,94557.59
2023-04-14T08:26:38.671Z,94543.34
2023-04-14T08:29:24.023Z,94536.00
2023-04-14T08:32:09.305Z,94532.63
2023-04-14T08:35:38.396Z,94547.81
2023-04-14T08:38:01.314Z,94544.66
2023-04-14T08:40:53.517Z,94542.53
2023-04-14T08:43:38.961Z,94545.81
2023-04-14T08:46:27.296Z,94539.78
2023-04-14T08:49:22.203Z,94544.88
2023-04-14T08:52:10.819Z,94540.66
2023-04-14T08:54:57.671Z,94543.84
2023-04-14T08:57:44.212Z,94551.06
2023-04-14T09:00:31.017Z,94542.81
2023-04-14T09:03:16.408Z,94535.88
2023-04-14T09:06:02.755Z,94540.41
2023-04-14T09:08:48.181Z,94536.16
2023-04-14T09:11:33.818Z,94530.81
2023-04-14T09:14:20.800Z,94535.66
2023-04-14T09:17:06.562Z,94527.94
2023-04-14T09:20:38.936Z,94526.88
2023-04-14T09:22:58.166Z,94526.63
2023-04-14T09:25:43.548Z,94523.41
2023-04-14T09:28:28.493Z,94517.06
2023-04-14T09:31:13.949Z,94508.53
2023-04-14T09:33:59.173Z,94495.50
2023-04-14T09:37:13.951Z,94495.75
2023-04-14T09:40:00.215Z,94494.69
2023-04-14T09:42:47.266Z,94484.31
2023-04-14T09:45:45.332Z,94479.81
2023-04-14T09:48:30.554Z,94490.44
2023-04-14T09:51:16.207Z,94509.09
2023-04-14T09:54:07.053Z,94512.78
2023-04-14T09:56:56.674Z,94502.13
2023-04-14T09:59:41.982Z,94509.34
2023-04-14T10:02:27.275Z,94510.66
2023-04-14T10:05:12.875Z,94511.19
2023-04-14T10:08:05.479Z,94514.41
2023-04-14T10:10:51.633Z,94513.59
2023-04-14T10:13:37.103Z,94506.91
2023-04-14T10:16:23.344Z,94506.41
2023-04-14T10:19:08.865Z,94504.03
2023-04-14T10:21:54.609Z,94495.78
2023-04-14T10:24:41.533Z,94502.16
2023-04-14T10:27:30.156Z,94489.94
2023-04-14T10:30:15.649Z,94483.31
2023-04-14T10:33:02.403Z,94488.91
2023-04-14T10:35:53.634Z,94481.97
2023-04-14T10:38:44.531Z,94470.53
2023-04-14T10:41:47.343Z,94470.53
2023-04-14T10:44:35.209Z,94467.06
2023-04-14T10:47:25.085Z,94463.34
2023-04-14T10:50:18.558Z,94450.53
2023-04-14T10:53:08.086Z,94446.75
2023-04-14T10:55:58.080Z,94452.84
2023-04-14T10:58:55.171Z,94445.31
2023-04-14T11:01:41.565Z,94447.72
2023-04-14T11:04:27.185Z,94434.34
2023-04-14T11:07:21.745Z,94439.91
2023-04-14T11:10:19.363Z,94436.94
2023-04-14T11:13:07.540Z,94437.75
2023-04-14T11:16:08.252Z,94419.59
2023-04-14T11:18:54.630Z,94416.56
2023-04-14T11:21:49.958Z,94424.31
2023-04-14T11:24:35.104Z,94434.44
2023-04-14T11:27:20.316Z,94442.97
2023-04-14T11:30:14.245Z,94442.72
2023-04-14T11:32:59.692Z,94428.59
2023-04-14T11:35:45.948Z,94428.34
2023-04-14T11:38:31.652Z,94428.09
2023-04-14T11:41:16.925Z,94428.41
2023-04-14T11:44:02.159Z,94430.31
2023-04-14T11:46:47.302Z,94422.06
2023-04-14T11:49:35.090Z,94428.44
2023-04-14T11:52:21.045Z,94412.44
2023-04-14T11:55:07.066Z,94414.06
2023-04-14T11:57:53.364Z,94403.88
2023-04-14T12:00:38.864Z,94395.88
2023-04-14T12:03:29.282Z,94396.94
2023-04-14T12:06:15.363Z,94400.13
2023-04-14T12:09:03.799Z,94386.25
2023-04-14T12:11:55.801Z,94390.25
2023-04-14T12:14:42.810Z,94387.03
2023-04-14T12:17:28.628Z,94386.22
2023-04-14T12:20:16.108Z,94387.31
2023-04-14T12:23:03.197Z,94385.97
2023-04-14T12:25:52.336Z,94385.16
2023-04-14T12:28:41.166Z,94383.06
2023-04-14T12:31:29.790Z,94376.13
2023-04-14T12:34:15.226Z,94376.94
2023-04-14T12:37:07.146Z,94376.13
2023-04-14T12:40:00.790Z,94370.81
2023-04-14T12:42:54.128Z,94372.38
2023-04-14T12:45:48.978Z,94363.81
2023-04-14T12:48:45.767Z,94361.16
2023-04-14T12:51:38.916Z,94352.56
2023-04-14T12:54:23.831Z,94347.72
2023-04-14T12:57:09.312Z,94347.16
2023-04-14T12:59:54.872Z,94340.19
2023-04-14T13:02:40.181Z,94347.38
2023-04-14T13:05:25.484Z,94326.78
2023-04-14T13:08:11.706Z,94325.75
2023-04-14T13:10:57.176Z,94331.06
2023-04-14T13:13:44.417Z,94318.78
2023-04-14T13:16:30.030Z,94316.13
2023-04-14T13:19:15.249Z,94321.19
2023-04-14T13:22:00.608Z,94320.41
2023-04-14T13:24:46.326Z,94313.97
2023-04-14T13:27:31.440Z,94320.41
2023-04-14T13:30:16.787Z,94313.19
2023-04-14T13:33:02.030Z,94318.25
2023-04-14T13:35:47.411Z,94300.63
2023-04-14T13:38:33.463Z,94308.63
2023-04-14T13:41:19.627Z,94308.09
2023-04-14T13:44:05.192Z,94307.31
2023-04-14T13:46:53.914Z,94311.56
2023-04-14T13:49:39.040Z,94309.47
2023-04-14T13:52:24.160Z,94312.44
2023-04-14T13:55:11.013Z,94304.19
2023-04-14T13:57:56.294Z,94304.75
2023-04-14T14:00:41.693Z,94300.75
2023-04-14T14:03:29.113Z,94302.88
2023-04-14T14:06:15.592Z,94297.09
2023-04-14T14:09:06.411Z,94300.28
2023-04-14T14:11:52.206Z,94306.75
2023-04-14T14:14:38.088Z,94306.25
2023-04-14T14:17:23.443Z,94307.91
2023-04-14T14:20:09.686Z,94307.47
2023-04-14T14:22:55.230Z,94309.16
2023-04-14T14:25:41.054Z,94310.22
2023-04-14T14:28:26.267Z,94313.97
2023-04-14T14:31:11.617Z,94322.00
2023-04-14T14:33:56.860Z,94322.53
2023-04-14T14:36:43.609Z,94327.88
2023-04-14T14:39:32.064Z,94324.69
2023-04-14T14:42:17.031Z,94331.63
2023-04-14T14:45:02.337Z,94335.38
2023-04-14T14:47:47.775Z,94330.56
2023-04-14T14:50:32.930Z,94340.72
2023-04-14T14:53:18.349Z,94337.53
2023-04-14T14:56:03.803Z,94336.75
2023-04-14T14:58:48.876Z,94337.34
2023-04-14T15:01:35.027Z,94341.56
2023-04-14T15:04:20.438Z,94335.72
2023-04-14T15:07:05.862Z,94346.66
2023-04-14T15:09:50.996Z,94345.59
2023-04-14T15:12:36.123Z,94354.38
2023-04-14T15:15:21.375Z,94359.72
2023-04-14T15:18:07.351Z,94365.06
2023-04-14T15:20:56.102Z,94364.22
2023-04-14T15:23:43.576Z,94369.59
2023-04-14T15:26:28.903Z,94368.50
2023-04-14T15:29:14.000Z,94372.25
2023-04-14T15:32:00.407Z,94371.16
2023-04-14T15:34:45.890Z,94379.44
2023-04-14T15:37:31.067Z,94387.69
2023-04-14T15:40:16.374Z,94387.97
2023-04-14T15:43:01.686Z,94387.69
2023-04-14T15:45:46.617Z,94386.63
2023-04-14T15:48:31.946Z,94388.22
2023-04-14T15:51:17.173Z,94389.84
2023-04-14T15:54:02.684Z,94390.88
2023-04-14T15:56:48.097Z,94397.28
2023-04-14T15:59:33.437Z,94392.50
2023-04-14T16:02:18.665Z,94391.44
2023-04-14T16:05:07.288Z,94390.88
2023-04-14T16:07:52.773Z,94398.59
2023-04-14T16:10:41.831Z,94405.28
2023-04-14T16:13:27.471Z,94396.75
2023-04-14T16:16:13.796Z,94417.78
2023-04-14T16:18:59.119Z,94419.88
2023-04-14T16:21:44.527Z,94417.72
2023-04-14T16:24:34.282Z,94425.72
2023-04-14T16:27:19.291Z,94428.66
2023-04-14T16:30:04.886Z,94436.53
2023-04-14T16:32:50.372Z,94430.09
2023-04-14T16:35:35.484Z,94434.09
2023-04-14T16:38:20.379Z,94433.81
2023-04-14T16:41:05.803Z,94443.41
2023-04-14T16:43:51.056Z,94446.06
2023-04-14T16:46:36.331Z,94445.53
2023-04-14T16:49:21.779Z,94451.34
2023-04-14T16:52:07.361Z,94457.72
2023-04-14T16:54:54.388Z,94455.56
2023-04-14T16:57:39.607Z,94455.25
2023-04-14T17:00:25.201Z,94463.75
2023-04-14T17:03:10.760Z,94475.19
2023-04-14T17:05:56.547Z,94467.19
2023-04-14T17:08:41.654Z,94472.94
2023-04-14T17:11:27.082Z,94466.53
2023-04-14T17:14:12.289Z,94460.59
2023-04-14T17:16:57.775Z,94457.94
2023-04-14T17:19:42.991Z,94462.19
2023-04-14T17:22:28.298Z,94462.63
2023-04-14T17:25:16.360Z,94460.13
2023-04-14T17:28:02.386Z,94461.22
2023-04-14T17:30:47.590Z,94456.19
2023-04-14T17:33:32.795Z,94461.00
2023-04-14T17:36:17.842Z,94464.16
2023-04-14T17:39:03.986Z,94460.47
2023-04-14T17:41:49.450Z,94455.34
2023-04-14T17:44:35.273Z,94459.84
2023-04-14T17:47:22.009Z,94471.50
2023-04-14T17:50:07.809Z,94467.22
2023-04-14T17:52:53.223Z,94466.03
2023-04-14T17:55:38.481Z,94470.78
2023-04-14T17:58:27.145Z,94472.94
2023-04-14T18:01:12.342Z,94470.78
2023-04-14T18:03:59.831Z,94475.53
2023-04-14T18:06:45.440Z,94479.00
2023-04-14T18:09:30.610Z,94477.13
2023-04-14T18:12:15.750Z,94477.41
2023-04-14T18:15:01.093Z,94482.16
2023-04-14T18:17:46.850Z,94478.63
2023-04-14T18:20:32.231Z,94474.31
2023-04-14T18:23:17.539Z,94468.75
2023-04-14T18:28:51.612Z,94475.09
2023-04-14T18:31:37.215Z,94477.75
2023-04-14T18:34:22.795Z,94474.31
2023-04-14T18:37:07.978Z,94472.22
2023-04-14T18:39:53.003Z,94479.63
2023-04-14T18:42:39.044Z,94479.03
2023-04-14T18:45:24.624Z,94486.44
2023-04-14T18:48:10.010Z,94496.50
2023-04-14T18:51:01.965Z,94493.69
2023-04-14T18:53:48.186Z,94491.97
2023-04-14T18:56:33.397Z,94499.00
2023-04-14T18:59:18.859Z,94491.88
2023-04-14T19:02:04.598Z,94496.59
2023-04-14T19:04:50.241Z,94497.59
2023-04-14T19:07:35.986Z,94500.19
2023-04-14T19:10:21.381Z,94498.84
2023-04-14T19:13:06.834Z,94502.25
2023-04-14T19:15:52.838Z,94500.97
2023-04-14T19:18:52.512Z,94491.50
2023-04-14T19:21:37.617Z,94507.22
2023-04-14T19:24:23.494Z,94496.00
2023-04-14T19:27:10.436Z,94503.94
2023-04-14T19:29:57.470Z,94504.50
2023-04-14T19:32:42.871Z,94498.66
2023-04-14T19:35:28.768Z,94487.53
2023-04-14T19:38:13.808Z,94493.66
2023-04-14T19:40:59.060Z,94485.38
2023-04-14T19:43:45.687Z,94490.13
2023-04-14T19:46:31.596Z,94477.38
2023-04-14T19:49:16.641Z,94472.88
2023-04-14T19:52:01.986Z,94477.06
2023-04-14T19:54:47.520Z,94471.72
2023-04-14T19:57:33.228Z,94474.66
2023-04-14T20:00:18.450Z,94483.19
2023-04-14T20:03:03.790Z,94493.72
2023-04-14T20:05:54.931Z,94512.13
2023-04-14T20:08:40.829Z,94503.88
2023-04-14T20:11:28.172Z,94503.63
2023-04-14T20:14:13.711Z,94506.34
2023-04-14T20:16:59.424Z,94513.09
2023-04-14T20:19:44.614Z,94515.88
2023-04-14T20:22:33.494Z,94519.88
2023-04-14T20:25:19.159Z,94517.63
2023-04-14T20:28:05.236Z,94545.25
2023-04-14T20:30:54.760Z,94546.28
2023-04-14T20:33:40.121Z,94545.44
2023-04-14T20:36:25.298Z,94564.19
2023-04-14T20:39:10.819Z,94550.88
2023-04-14T20:41:55.858Z,94554.09
2023-04-14T20:44:41.287Z,94556.66
2023-04-14T20:47:26.733Z,94562.63
2023-04-14T20:50:12.370Z,94562.53
2023-04-14T20:52:57.488Z,94565.66
2023-04-14T20:55:43.459Z,94573.81
2023-04-14T20:58:28.484Z,94574.22
2023-04-14T21:01:13.793Z,94583.44
2023-04-14T21:03:59.271Z,94598.03
2023-04-14T21:06:44.578Z,94603.34
2023-04-14T21:09:30.223Z,94605.41
2023-04-14T21:12:16.667Z,94589.59
2023-04-14T21:15:47.535Z,94577.75
2023-04-14T21:18:06.904Z,94579.41
2023-04-14T21:20:52.229Z,94583.81
2023-04-14T21:23:37.773Z,94570.00
2023-04-14T21:26:23.901Z,94588.06
2023-04-14T21:29:09.460Z,94583.53
2023-04-14T21:31:54.755Z,94586.09
2023-04-14T21:34:40.817Z,94573.81
2023-04-14T21:37:25.960Z,94573.34
2023-04-14T21:40:11.704Z,94582.41
2023-04-14T21:42:56.712Z,94585.03
2023-04-14T21:45:42.298Z,94594.50
2023-04-14T21:48:27.825Z,94599.69
2023-04-14T21:51:13.458Z,94596.97
2023-04-14T21:53:58.519Z,94607.22
2023-04-14T21:56:45.055Z,94618.47
2023-04-14T21:59:30.673Z,94610.91
2023-04-14T22:02:16.758Z,94609.75
2023-04-14T22:05:02.317Z,94608.66
2023-04-14T22:07:47.382Z,94622.34
2023-04-14T22:10:32.752Z,94623.72
2023-04-14T22:13:18.496Z,94626.84
2023-04-14T22:16:04.129Z,94631.56
2023-04-14T22:18:49.272Z,94637.22
2023-04-14T22:21:34.933Z,94626.88
2023-04-14T22:24:20.154Z,94632.94
2023-04-14T22:27:05.378Z,94642.72
2023-04-14T22:29:50.717Z,94642.16
2023-04-14T22:32:36.425Z,94641.56
2023-04-14T22:35:22.043Z,94633.88
2023-04-14T22:38:07.554Z,94636.41
2023-04-14T22:40:52.850Z,94622.50
2023-04-14T22:43:38.365Z,94623.09
2023-04-14T22:46:23.638Z,94626.31
2023-04-14T22:49:08.955Z,94631.59
2023-04-14T22:51:54.265Z,94632.84
2023-04-14T22:54:39.641Z,94625.97
2023-04-14T22:57:25.066Z,94622.75
2023-04-14T23:00:11.874Z,94631.44
2023-04-14T23:02:59.376Z,94631.44
2023-04-14T23:05:44.864Z,94643.06
2023-04-14T23:08:30.500Z,94650.66
2023-04-14T23:11:20.877Z,94637.09
2023-04-14T23:14:06.653Z,94643.66
2023-04-14T23:16:51.993Z,94640.91
2023-04-14T23:19:37.636Z,94636.06
2023-04-14T23:22:23.447Z,94643.19
2023-04-14T23:25:09.302Z,94637.09
2023-04-14T23:27:54.589Z,94633.66
2023-04-14T23:30:41.814Z,94641.81
2023-04-14T23:33:27.048Z,94649.94
2023-04-14T23:36:13.499Z,94652.47
2023-04-14T23:38:58.709Z,94642.97
2023-04-14T23:41:44.024Z,94648.25
2023-04-14T23:44:29.506Z,94646.03
2023-04-14T23:47:14.896Z,94651.78
2023-04-14T23:50:00.152Z,94657.53
2023-04-14T23:52:45.310Z,94655.13
2023-04-14T23:55:30.537Z,94651.06
2023-04-14T23:58:26.099Z,94650.50
